sensor_id;sensor_type;location;lat;lon;timestamp;pressure;altitude;pressure_sealevel;temperature;humidity
67517;BME280;68821;59.134;37.894;2023-05-21T00:00:36;101199.16;;;13.66;51.82
67517;BME280;68821;59.134;37.894;2023-05-21T00:03:02;101198.25;;;13.64;51.70
67517;BME280;68821;59.134;37.894;2023-05-21T00:05:28;101199.03;;;13.60;52.03
67517;BME280;68821;59.134;37.894;2023-05-21T00:07:55;101191.19;;;13.55;51.73
67517;BME280;68821;59.134;37.894;2023-05-21T00:10:22;101191.13;;;13.51;52.07
67517;BME280;68821;59.134;37.894;2023-05-21T00:12:48;101196.25;;;13.47;52.10
67517;BME280;68821;59.134;37.894;2023-05-21T00:15:14;101190.97;;;13.41;52.45
67517;BME280;68821;59.134;37.894;2023-05-21T00:17:40;101185.75;;;13.40;52.15
67517;BME280;68821;59.134;37.894;2023-05-21T00:20:08;101192.53;;;13.35;52.46
67517;BME280;68821;59.134;37.894;2023-05-21T00:22:34;101192.47;;;13.30;52.57
67517;BME280;68821;59.134;37.894;2023-05-21T00:25:01;101188.00;;;13.24;52.55
67517;BME280;68821;59.134;37.894;2023-05-21T00:27:27;101199.97;;;13.19;52.60
67517;BME280;68821;59.134;37.894;2023-05-21T00:29:54;101204.16;;;13.14;52.99
67517;BME280;68821;59.134;37.894;2023-05-21T00:32:20;101192.03;;;13.08;52.73
67517;BME280;68821;59.134;37.894;2023-05-21T00:34:46;101200.56;;;13.06;52.92
67517;BME280;68821;59.134;37.894;2023-05-21T00:37:13;101201.34;;;13.00;53.04
67517;BME280;68821;59.134;37.894;2023-05-21T00:39:40;101207.31;;;12.99;53.32
67517;BME280;68821;59.134;37.894;2023-05-21T00:42:06;101199.41;;;12.92;53.05
67517;BME280;68821;59.134;37.894;2023-05-21T00:44:32;101196.69;;;12.84;53.28
67517;BME280;68821;59.134;37.894;2023-05-21T00:47:00;101204.34;;;12.81;53.34
67517;BME280;68821;59.134;37.894;2023-05-21T00:49:27;101204.28;;;12.76;53.45
67517;BME280;68821;59.134;37.894;2023-05-21T00:51:53;101204.97;;;12.69;53.89
67517;BME280;68821;59.134;37.894;2023-05-21T00:54:20;101203.97;;;12.62;54.01
67517;BME280;68821;59.134;37.894;2023-05-21T00:56:47;101197.72;;;12.51;54.03
67517;BME280;68821;59.134;37.894;2023-05-21T00:59:15;101212.28;;;12.49;54.15
67517;BME280;68821;59.134;37.894;2023-05-21T01:01:44;101208.72;;;12.44;54.46
67517;BME280;68821;59.134;37.894;2023-05-21T01:04:11;101209.53;;;12.41;54.47
67517;BME280;68821;59.134;37.894;2023-05-21T01:06:37;101218.97;;;12.41;54.67
67517;BME280;68821;59.134;37.894;2023-05-21T01:09:04;101216.44;;;12.44;54.71
67517;BME280;68821;59.134;37.894;2023-05-21T01:11:40;101210.47;;;12.45;54.50
67517;BME280;68821;59.134;37.894;2023-05-21T01:14:09;101213.09;;;12.48;54.21
67517;BME280;68821;59.134;37.894;2023-05-21T01:16:38;101208.91;;;12.52;54.60
67517;BME280;68821;59.134;37.894;2023-05-21T01:19:07;101210.75;;;12.59;54.57
67517;BME280;68821;59.134;37.894;2023-05-21T01:21:36;101212.59;;;12.64;54.54
67517;BME280;68821;59.134;37.894;2023-05-21T01:24:06;101193.56;;;12.58;55.04
67517;BME280;68821;59.134;37.894;2023-05-21T01:26:33;101212.06;;;12.78;54.67
67517;BME280;68821;59.134;37.894;2023-05-21T01:29:04;101207.03;;;12.85;54.49
67517;BME280;68821;59.134;37.894;2023-05-21T01:32:07;101215.75;;;12.91;54.52
67517;BME280;68821;59.134;37.894;2023-05-21T01:37:34;101211.66;;;13.00;54.20
67517;BME280;68821;59.134;37.894;2023-05-21T01:42:41;101217.81;;;13.07;54.50
67517;BME280;68821;59.134;37.894;2023-05-21T01:45:09;101209.28;;;13.11;54.48
67517;BME280;68821;59.134;37.894;2023-05-21T01:47:36;101213.66;;;13.15;54.33
67517;BME280;68821;59.134;37.894;2023-05-21T01:50:04;101209.44;;;13.19;54.46
67517;BME280;68821;59.134;37.894;2023-05-21T01:52:31;101215.50;;;13.22;53.79
67517;BME280;68821;59.134;37.894;2023-05-21T01:54:57;101215.59;;;13.25;53.68
67517;BME280;68821;59.134;37.894;2023-05-21T01:57:25;101205.97;;;13.18;53.97
67517;BME280;68821;59.134;37.894;2023-05-21T01:59:51;101210.44;;;13.25;54.20
67517;BME280;68821;59.134;37.894;2023-05-21T02:02:18;101220.75;;;13.25;53.76
67517;BME280;68821;59.134;37.894;2023-05-21T02:04:44;101207.88;;;13.27;53.76
67517;BME280;68821;59.134;37.894;2023-05-21T02:07:11;101192.22;;;13.19;54.07
67517;BME280;68821;59.134;37.894;2023-05-21T02:09:39;101202.69;;;13.25;54.13
67517;BME280;68821;59.134;37.894;2023-05-21T02:12:06;101189.63;;;13.18;53.85
67517;BME280;68821;59.134;37.894;2023-05-21T02:14:33;101197.41;;;13.19;53.99
67517;BME280;68821;59.134;37.894;2023-05-21T02:16:59;101202.63;;;13.24;54.13
67517;BME280;68821;59.134;37.894;2023-05-21T02:19:25;101204.50;;;13.30;54.36
67517;BME280;68821;59.134;37.894;2023-05-21T02:21:52;101201.97;;;13.33;54.69
67517;BME280;68821;59.134;37.894;2023-05-21T02:24:18;101194.25;;;13.34;54.51
67517;BME280;68821;59.134;37.894;2023-05-21T02:26:44;101198.66;;;13.38;54.41
67517;BME280;68821;59.134;37.894;2023-05-21T02:29:12;101203.91;;;13.44;54.40
67517;BME280;68821;59.134;37.894;2023-05-21T02:31:38;101206.56;;;13.47;54.34
67517;BME280;68821;59.134;37.894;2023-05-21T02:34:04;101205.78;;;13.52;54.58
67517;BME280;68821;59.134;37.894;2023-05-21T02:36:30;101204.94;;;13.53;54.66
67517;BME280;68821;59.134;37.894;2023-05-21T02:38:58;101205.91;;;13.58;54.31
67517;BME280;68821;59.134;37.894;2023-05-21T02:41:24;101193.03;;;13.61;54.33
67517;BME280;68821;59.134;37.894;2023-05-21T02:43:51;101195.72;;;13.67;54.29
67517;BME280;68821;59.134;37.894;2023-05-21T02:46:17;101205.31;;;13.74;54.48
67517;BME280;68821;59.134;37.894;2023-05-21T02:48:43;101186.16;;;13.63;54.18
67517;BME280;68821;59.134;37.894;2023-05-21T02:51:10;101197.53;;;13.73;54.19
67517;BME280;68821;59.134;37.894;2023-05-21T02:53:36;101200.22;;;13.79;53.87
67517;BME280;68821;59.134;37.894;2023-05-21T02:56:02;101186.31;;;13.71;54.08
67517;BME280;68821;59.134;37.894;2023-05-21T02:58:28;101210.69;;;13.88;54.02
67517;BME280;68821;59.134;37.894;2023-05-21T03:00:54;101206.53;;;13.95;54.08
67517;BME280;68821;59.134;37.894;2023-05-21T03:03:20;101212.59;;;13.97;53.91
67517;BME280;68821;59.134;37.894;2023-05-21T03:05:47;101198.78;;;13.96;53.77
67517;BME280;68821;59.134;37.894;2023-05-21T03:08:13;101209.25;;;14.04;53.66
67517;BME280;68821;59.134;37.894;2023-05-21T03:10:39;101208.41;;;14.05;53.77
67517;BME280;68821;59.134;37.894;2023-05-21T03:13:05;101205.00;;;14.07;53.60
67517;BME280;68821;59.134;37.894;2023-05-21T03:15:31;101206.78;;;14.12;53.75
67517;BME280;68821;59.134;37.894;2023-05-21T03:17:58;101201.59;;;14.10;53.87
67517;BME280;68821;59.134;37.894;2023-05-21T03:20:24;101205.91;;;14.09;53.90
67517;BME280;68821;59.134;37.894;2023-05-21T03:22:51;101206.72;;;14.08;53.57
67517;BME280;68821;59.134;37.894;2023-05-21T03:25:19;101199.81;;;14.06;53.89
67517;BME280;68821;59.134;37.894;2023-05-21T03:27:46;101195.44;;;14.02;54.19
67517;BME280;68821;59.134;37.894;2023-05-21T03:30:15;101203.22;;;14.03;54.20
67517;BME280;68821;59.134;37.894;2023-05-21T03:32:41;101206.66;;;14.04;54.40
67517;BME280;68821;59.134;37.894;2023-05-21T03:35:09;101202.34;;;14.03;54.16
67517;BME280;68821;59.134;37.894;2023-05-21T03:37:36;101204.97;;;14.06;54.04
67517;BME280;68821;59.134;37.894;2023-05-21T03:40:03;101202.41;;;14.07;54.38
67517;BME280;68821;59.134;37.894;2023-05-21T03:42:29;101205.88;;;14.08;54.40
67517;BME280;68821;59.134;37.894;2023-05-21T03:44:55;101211.13;;;14.14;54.13
67517;BME280;68821;59.134;37.894;2023-05-21T03:47:21;101197.25;;;14.07;54.79
67517;BME280;68821;59.134;37.894;2023-05-21T03:49:47;101206.84;;;14.16;54.21
67517;BME280;68821;59.134;37.894;2023-05-21T03:52:14;101204.28;;;14.16;53.98
67517;BME280;68821;59.134;37.894;2023-05-21T03:54:40;101204.38;;;14.22;54.72
67517;BME280;68821;59.134;37.894;2023-05-21T03:57:06;101208.78;;;14.29;54.71
67517;BME280;68821;59.134;37.894;2023-05-21T03:59:32;101189.78;;;14.29;54.42
67517;BME280;68821;59.134;37.894;2023-05-21T04:01:58;101204.69;;;14.44;54.25
67517;BME280;68821;59.134;37.894;2023-05-21T04:04:25;101204.78;;;14.50;54.65
67517;BME280;68821;59.134;37.894;2023-05-21T04:06:51;101207.56;;;14.62;54.39
67517;BME280;68821;59.134;37.894;2023-05-21T04:09:19;101207.66;;;14.68;54.22
67517;BME280;68821;59.134;37.894;2023-05-21T04:11:45;101212.00;;;14.71;54.36
67517;BME280;68821;59.134;37.894;2023-05-21T04:14:12;101213.75;;;14.74;54.06
67517;BME280;68821;59.134;37.894;2023-05-21T04:16:38;101205.16;;;14.75;53.99
67517;BME280;68821;59.134;37.894;2023-05-21T04:19:05;101208.63;;;14.77;53.99
67517;BME280;68821;59.134;37.894;2023-05-21T04:21:31;101194.78;;;14.76;54.02
67517;BME280;68821;59.134;37.894;2023-05-21T04:23:57;101201.84;;;14.88;54.58
67517;BME280;68821;59.134;37.894;2023-05-21T04:26:25;101201.09;;;14.95;54.62
67517;BME280;68821;59.134;37.894;2023-05-21T04:28:52;101203.75;;;15.01;54.11
67517;BME280;68821;59.134;37.894;2023-05-21T04:31:20;101202.91;;;15.04;54.31
67517;BME280;68821;59.134;37.894;2023-05-21T04:33:47;101198.69;;;15.12;54.16
67517;BME280;68821;59.134;37.894;2023-05-21T04:36:13;101200.47;;;15.19;54.05
67517;BME280;68821;59.134;37.894;2023-05-21T04:38:41;101185.91;;;15.29;54.36
67517;BME280;68821;59.134;37.894;2023-05-21T04:41:08;101188.63;;;15.41;53.90
67517;BME280;68821;59.134;37.894;2023-05-21T04:43:37;101184.41;;;15.51;53.73
67517;BME280;68821;59.134;37.894;2023-05-21T04:46:04;101184.50;;;15.60;53.34
67517;BME280;68821;59.134;37.894;2023-05-21T04:48:31;101195.00;;;15.73;53.43
67517;BME280;68821;59.134;37.894;2023-05-21T04:50:57;101188.16;;;15.78;53.28
67517;BME280;68821;59.134;37.894;2023-05-21T04:53:24;101187.38;;;15.88;53.25
67517;BME280;68821;59.134;37.894;2023-05-21T04:55:50;101188.25;;;15.93;53.04
67517;BME280;68821;59.134;37.894;2023-05-21T04:58:17;101186.56;;;15.97;52.75
67517;BME280;68821;59.134;37.894;2023-05-21T05:00:44;101174.41;;;15.88;52.94
67517;BME280;68821;59.134;37.894;2023-05-21T05:03:15;101173.47;;;15.83;52.90
67517;BME280;68821;59.134;37.894;2023-05-21T05:05:41;101174.34;;;15.80;53.13
67517;BME280;68821;59.134;37.894;2023-05-21T05:08:07;101177.78;;;15.79;53.14
67517;BME280;68821;59.134;37.894;2023-05-21T05:10:34;101172.59;;;15.78;52.98
67517;BME280;68821;59.134;37.894;2023-05-21T05:13:00;101173.50;;;15.81;53.08
67517;BME280;68821;59.134;37.894;2023-05-21T05:15:27;101177.00;;;15.89;53.08
67517;BME280;68821;59.134;37.894;2023-05-21T05:17:53;101181.41;;;15.98;53.17
67517;BME280;68821;59.134;37.894;2023-05-21T05:20:21;101189.22;;;16.03;53.24
67517;BME280;68821;59.134;37.894;2023-05-21T05:22:47;101192.63;;;15.99;53.00
67517;BME280;68821;59.134;37.894;2023-05-21T05:25:13;101200.41;;;15.96;53.31
67517;BME280;68821;59.134;37.894;2023-05-21T05:27:39;101195.16;;;15.88;53.53
67517;BME280;68821;59.134;37.894;2023-05-21T05:30:06;101195.97;;;15.82;54.04
67517;BME280;68821;59.134;37.894;2023-05-21T05:32:32;101198.53;;;15.78;54.27
67517;BME280;68821;59.134;37.894;2023-05-21T05:34:59;101201.94;;;15.74;54.84
67517;BME280;68821;59.134;37.894;2023-05-21T05:37:25;101194.09;;;15.70;55.57
67517;BME280;68821;59.134;37.894;2023-05-21T05:39:51;101185.47;;;15.72;56.48
67517;BME280;68821;59.134;37.894;2023-05-21T05:42:17;101179.44;;;15.73;56.83
67517;BME280;68821;59.134;37.894;2023-05-21T05:44:43;101189.09;;;15.86;57.12
67517;BME280;68821;59.134;37.894;2023-05-21T05:47:10;101193.50;;;15.98;57.09
67517;BME280;68821;59.134;37.894;2023-05-21T05:49:36;101186.63;;;16.07;56.77
67517;BME280;68821;59.134;37.894;2023-05-21T05:52:02;101197.13;;;16.21;56.95
67517;BME280;68821;59.134;37.894;2023-05-21T05:54:29;101186.81;;;16.31;56.91
67517;BME280;68821;59.134;37.894;2023-05-21T05:56:55;101186.88;;;16.46;57.56
67517;BME280;68821;59.134;37.894;2023-05-21T05:59:21;101189.56;;;16.55;57.35
67517;BME280;68821;59.134;37.894;2023-05-21T06:01:47;101179.19;;;16.60;57.39
67517;BME280;68821;59.134;37.894;2023-05-21T06:04:13;101169.69;;;16.66;57.20
67517;BME280;68821;59.134;37.894;2023-05-21T06:06:39;101185.38;;;16.82;57.55
67517;BME280;68821;59.134;37.894;2023-05-21T06:09:06;101187.16;;;16.97;57.08
67517;BME280;68821;59.134;37.894;2023-05-21T06:11:36;101179.44;;;17.11;57.01
67517;BME280;68821;59.134;37.894;2023-05-21T06:14:02;101188.13;;;17.25;57.25
67517;BME280;68821;59.134;37.894;2023-05-21T06:16:28;101182.06;;;17.37;56.07
67517;BME280;68821;59.134;37.894;2023-05-21T06:18:57;101182.09;;;17.47;55.94
67517;BME280;68821;59.134;37.894;2023-05-21T06:21:23;101174.28;;;17.55;56.16
67517;BME280;68821;59.134;37.894;2023-05-21T06:23:50;101175.19;;;17.62;55.44
67517;BME280;68821;59.134;37.894;2023-05-21T06:26:16;101180.38;;;17.68;55.82
67517;BME280;68821;59.134;37.894;2023-05-21T06:28:44;101176.03;;;17.75;55.44
67517;BME280;68821;59.134;37.894;2023-05-21T06:31:10;101178.63;;;17.79;55.41
67517;BME280;68821;59.134;37.894;2023-05-21T06:33:36;101178.66;;;17.84;55.30
67517;BME280;68821;59.134;37.894;2023-05-21T06:36:02;101172.63;;;17.86;55.37
67517;BME280;68821;59.134;37.894;2023-05-21T06:38:29;101163.91;;;17.81;55.03
67517;BME280;68821;59.134;37.894;2023-05-21T06:40:55;101175.22;;;17.85;55.31
67517;BME280;68821;59.134;37.894;2023-05-21T06:43:23;101166.53;;;17.86;54.97
67517;BME280;68821;59.134;37.894;2023-05-21T06:45:49;101170.88;;;17.85;54.60
67517;BME280;68821;59.134;37.894;2023-05-21T06:48:15;101170.84;;;17.90;54.58
67517;BME280;68821;59.134;37.894;2023-05-21T06:50:42;101174.34;;;18.03;54.72
67517;BME280;68821;59.134;37.894;2023-05-21T06:53:09;101167.38;;;18.17;54.49
67517;BME280;68821;59.134;37.894;2023-05-21T06:55:35;101166.47;;;18.29;53.87
67517;BME280;68821;59.134;37.894;2023-05-21T06:58:02;101156.94;;;18.34;53.94
67517;BME280;68821;59.134;37.894;2023-05-21T07:00:28;101156.88;;;18.46;53.33
67517;BME280;68821;59.134;37.894;2023-05-21T07:02:54;101158.56;;;18.60;53.18
67517;BME280;68821;59.134;37.894;2023-05-21T07:05:20;101150.72;;;18.70;53.20
67517;BME280;68821;59.134;37.894;2023-05-21T07:07:46;101154.16;;;18.82;53.09
67517;BME280;68821;59.134;37.894;2023-05-21T07:10:13;101153.28;;;18.86;52.82
67517;BME280;68821;59.134;37.894;2023-05-21T07:12:39;101139.41;;;18.82;52.86
67517;BME280;68821;59.134;37.894;2023-05-21T07:15:06;101146.31;;;18.86;52.77
67517;BME280;68821;59.134;37.894;2023-05-21T07:17:32;101141.16;;;18.83;52.57
67517;BME280;68821;59.134;37.894;2023-05-21T07:19:58;101137.72;;;18.70;52.76
67517;BME280;68821;59.134;37.894;2023-05-21T07:22:24;101137.72;;;18.69;53.06
67517;BME280;68821;59.134;37.894;2023-05-21T07:24:50;101135.06;;;18.75;52.89
67517;BME280;68821;59.134;37.894;2023-05-21T07:27:17;101137.66;;;18.86;53.19
67517;BME280;68821;59.134;37.894;2023-05-21T07:29:43;101134.13;;;18.95;52.81
67517;BME280;68821;59.134;37.894;2023-05-21T07:32:09;101128.06;;;18.94;52.08
67517;BME280;68821;59.134;37.894;2023-05-21T07:34:36;101109.03;;;18.83;52.45
67517;BME280;68821;59.134;37.894;2023-05-21T07:37:02;101115.88;;;18.96;52.82
67517;BME280;68821;59.134;37.894;2023-05-21T07:39:28;101118.44;;;19.04;52.48
67517;BME280;68821;59.134;37.894;2023-05-21T07:41:54;101114.00;;;19.18;52.15
67517;BME280;68821;59.134;37.894;2023-05-21T07:44:21;101114.78;;;19.34;52.09
67517;BME280;68821;59.134;37.894;2023-05-21T07:46:47;101115.50;;;19.53;51.81
67517;BME280;68821;59.134;37.894;2023-05-21T07:49:13;101114.47;;;19.69;51.46
67517;BME280;68821;59.134;37.894;2023-05-21T07:51:42;101115.25;;;19.82;50.95
67517;BME280;68821;59.134;37.894;2023-05-21T07:54:09;101118.66;;;19.92;51.02
67517;BME280;68821;59.134;37.894;2023-05-21T07:56:35;101111.59;;;20.00;50.83
67517;BME280;68821;59.134;37.894;2023-05-21T07:59:01;101117.56;;;20.13;50.66
67517;BME280;68821;59.134;37.894;2023-05-21T08:01:27;101112.13;;;20.33;50.58
67517;BME280;68821;59.134;37.894;2023-05-21T08:03:54;101106.66;;;20.52;49.96
67517;BME280;68821;59.134;37.894;2023-05-21T08:06:20;101104.75;;;20.67;49.81
67517;BME280;68821;59.134;37.894;2023-05-21T08:08:49;101106.25;;;20.85;49.38
67517;BME280;68821;59.134;37.894;2023-05-21T08:11:16;101106.06;;;20.98;49.09
67517;BME280;68821;59.134;37.894;2023-05-21T08:13:42;101101.50;;;21.12;48.74
67517;BME280;68821;59.134;37.894;2023-05-21T08:16:08;101101.22;;;21.30;48.63
67517;BME280;68821;59.134;37.894;2023-05-21T08:18:34;101091.31;;;21.51;48.13
67517;BME280;68821;59.134;37.894;2023-05-21T08:21:00;101088.22;;;21.79;47.92
67517;BME280;68821;59.134;37.894;2023-05-21T08:23:27;101100.78;;;22.06;47.67
67517;BME280;68821;59.134;37.894;2023-05-21T08:25:53;101088.28;;;22.24;46.85
67517;BME280;68821;59.134;37.894;2023-05-21T08:28:21;101093.38;;;22.32;46.56
67517;BME280;68821;59.134;37.894;2023-05-21T08:30:48;101098.47;;;22.38;46.41
67517;BME280;68821;59.134;37.894;2023-05-21T08:33:14;101089.66;;;22.42;46.04
67517;BME280;68821;59.134;37.894;2023-05-21T08:35:40;101098.34;;;22.44;45.85
67517;BME280;68821;59.134;37.894;2023-05-21T08:38:06;101099.19;;;22.46;45.52
67517;BME280;68821;59.134;37.894;2023-05-21T08:40:33;101092.28;;;22.42;45.03
67517;BME280;68821;59.134;37.894;2023-05-21T08:43:00;101098.28;;;22.45;45.26
67517;BME280;68821;59.134;37.894;2023-05-21T08:45:27;101094.72;;;22.49;44.94
67517;BME280;68821;59.134;37.894;2023-05-21T08:47:58;101087.56;;;22.58;44.93
67517;BME280;68821;59.134;37.894;2023-05-21T08:50:26;101096.22;;;22.61;44.76
67517;BME280;68821;59.134;37.894;2023-05-21T08:52:53;101085.72;;;22.61;44.28
67517;BME280;68821;59.134;37.894;2023-05-21T08:55:20;101082.94;;;22.70;44.55
67517;BME280;68821;59.134;37.894;2023-05-21T08:57:49;101092.31;;;22.81;44.14
67517;BME280;68821;59.134;37.894;2023-05-21T09:00:16;101090.53;;;22.83;43.86
67517;BME280;68821;59.134;37.894;2023-05-21T09:02:42;101086.16;;;22.82;43.74
67517;BME280;68821;59.134;37.894;2023-05-21T09:05:12;101077.31;;;22.86;43.68
67517;BME280;68821;59.134;37.894;2023-05-21T09:07:54;101076.22;;;22.96;43.65
67517;BME280;68821;59.134;37.894;2023-05-21T09:10:37;101079.22;;;23.18;43.21
67517;BME280;68821;59.134;37.894;2023-05-21T09:13:04;101059.84;;;23.24;42.93
67517;BME280;68821;59.134;37.894;2023-05-21T09:15:32;101075.84;;;23.49;42.77
67517;BME280;68821;59.134;37.894;2023-05-21T09:17:59;101072.69;;;23.69;42.19
67517;BME280;68821;59.134;37.894;2023-05-21T09:20:28;101073.25;;;23.82;42.04
67517;BME280;68821;59.134;37.894;2023-05-21T09:22:54;101055.50;;;23.92;41.58
67517;BME280;68821;59.134;37.894;2023-05-21T09:25:23;101075.66;;;24.22;41.51
67517;BME280;68821;59.134;37.894;2023-05-21T09:27:54;101064.41;;;24.47;40.64
67517;BME280;68821;59.134;37.894;2023-05-21T09:30:21;101060.72;;;24.54;40.71
67517;BME280;68821;59.134;37.894;2023-05-21T09:32:58;101056.13;;;24.61;40.36
67517;BME280;68821;59.134;37.894;2023-05-21T09:35:24;101051.63;;;24.64;40.86
67517;BME280;68821;59.134;37.894;2023-05-21T09:37:52;101057.19;;;24.55;40.34
67517;BME280;68821;59.134;37.894;2023-05-21T09:40:20;101044.47;;;24.40;40.43
67517;BME280;68821;59.134;37.894;2023-05-21T09:42:48;101039.56;;;24.27;40.49
67517;BME280;68821;59.134;37.894;2023-05-21T09:45:22;101046.00;;;24.17;40.68
67517;BME280;68821;59.134;37.894;2023-05-21T09:47:50;101038.31;;;24.09;40.76
67517;BME280;68821;59.134;37.894;2023-05-21T09:50:18;101039.13;;;24.13;40.66
67517;BME280;68821;59.134;37.894;2023-05-21T09:52:45;101029.25;;;24.21;40.51
67517;BME280;68821;59.134;37.894;2023-05-21T09:55:12;101026.22;;;24.35;40.26
67517;BME280;68821;59.134;37.894;2023-05-21T09:57:40;101024.06;;;24.48;39.92
67517;BME280;68821;59.134;37.894;2023-05-21T10:00:07;101014.59;;;24.72;39.93
67517;BME280;68821;59.134;37.894;2023-05-21T10:02:36;101007.00;;;24.89;39.68
67517;BME280;68821;59.134;37.894;2023-05-21T10:05:09;101016.03;;;25.09;39.34
67517;BME280;68821;59.134;37.894;2023-05-21T10:07:36;101013.41;;;25.36;38.55
67517;BME280;68821;59.134;37.894;2023-05-21T10:10:05;101012.38;;;25.65;38.52
67517;BME280;68821;59.134;37.894;2023-05-21T10:12:32;101016.16;;;25.81;38.13
67517;BME280;68821;59.134;37.894;2023-05-21T10:15:02;101022.50;;;25.76;38.33
67517;BME280;68821;59.134;37.894;2023-05-21T10:17:29;101013.66;;;25.53;38.12
67517;BME280;68821;59.134;37.894;2023-05-21T10:19:55;101019.41;;;25.13;38.85
67517;BME280;68821;59.134;37.894;2023-05-21T10:22:24;101015.41;;;24.74;38.88
67517;BME280;68821;59.134;37.894;2023-05-21T10:24:51;101021.81;;;24.36;39.50
67517;BME280;68821;59.134;37.894;2023-05-21T10:27:18;100999.09;;;24.03;40.31
67517;BME280;68821;59.134;37.894;2023-05-21T10:29:45;101006.69;;;23.83;40.33
67517;BME280;68821;59.134;37.894;2023-05-21T10:32:12;101010.38;;;23.77;40.85
67517;BME280;68821;59.134;37.894;2023-05-21T10:34:41;101008.50;;;23.81;40.83
67517;BME280;68821;59.134;37.894;2023-05-21T10:37:08;101012.94;;;23.79;40.20
67517;BME280;68821;59.134;37.894;2023-05-21T10:39:37;101009.69;;;23.69;40.46
67517;BME280;68821;59.134;37.894;2023-05-21T10:50:39;101022.22;;;22.87;41.22
67517;BME280;68821;59.134;37.894;2023-05-21T10:58:46;101015.81;;;22.21;42.08
67517;BME280;68821;59.134;37.894;2023-05-21T11:01:17;101020.50;;;22.05;42.12
67517;BME280;68821;59.134;37.894;2023-05-21T11:03:46;101029.47;;;21.94;42.35
67517;BME280;68821;59.134;37.894;2023-05-21T11:06:22;101033.28;;;21.76;43.14
67517;BME280;68821;59.134;37.894;2023-05-21T11:08:50;101031.94;;;21.56;43.55
67517;BME280;68821;59.134;37.894;2023-05-21T11:16:58;101023.91;;;21.65;45.44
67517;BME280;68821;59.134;37.894;2023-05-21T11:19:33;101009.53;;;22.70;45.38
67517;BME280;68821;59.134;37.894;2023-05-21T11:22:04;100999.25;;;23.99;43.09
67517;BME280;68821;59.134;37.894;2023-05-21T11:24:31;101018.53;;;25.12;40.85
67517;BME280;68821;59.134;37.894;2023-05-21T11:26:59;101031.88;;;25.84;40.77
67517;BME280;68821;59.134;37.894;2023-05-21T11:29:34;101042.47;;;25.58;41.53
67517;BME280;68821;59.134;37.894;2023-05-21T11:32:06;101033.91;;;24.98;42.96
67517;BME280;68821;59.134;37.894;2023-05-21T11:34:39;101033.16;;;24.36;44.29
67517;BME280;68821;59.134;37.894;2023-05-21T11:39:52;101023.06;;;23.60;45.67
67517;BME280;68821;59.134;37.894;2023-05-21T11:42:37;101023.31;;;23.50;45.89
67517;BME280;68821;59.134;37.894;2023-05-21T11:45:04;101011.69;;;23.92;46.20
67517;BME280;68821;59.134;37.894;2023-05-21T11:47:31;101001.63;;;24.66;45.58
67517;BME280;68821;59.134;37.894;2023-05-21T11:49:59;100993.84;;;24.89;44.57
67517;BME280;68821;59.134;37.894;2023-05-21T11:52:28;100991.72;;;24.74;44.08
67517;BME280;68821;59.134;37.894;2023-05-21T11:54:55;100973.31;;;24.46;43.73
67517;BME280;68821;59.134;37.894;2023-05-21T11:57:28;100972.28;;;24.22;44.62
67517;BME280;68821;59.134;37.894;2023-05-21T12:00:00;100972.44;;;24.17;43.66
67517;BME280;68821;59.134;37.894;2023-05-21T12:02:32;100968.66;;;24.26;44.01
67517;BME280;68821;59.134;37.894;2023-05-21T12:04:58;100963.91;;;24.67;43.37
67517;BME280;68821;59.134;37.894;2023-05-21T12:07:27;100966.22;;;25.55;42.44
67517;BME280;68821;59.134;37.894;2023-05-21T12:09:57;100980.16;;;26.51;41.10
67517;BME280;68821;59.134;37.894;2023-05-21T12:12:25;100979.16;;;26.98;40.41
67517;BME280;68821;59.134;37.894;2023-05-21T12:14:53;100986.34;;;26.94;39.69
67517;BME280;68821;59.134;37.894;2023-05-21T12:17:21;100973.75;;;26.58;40.04
67517;BME280;68821;59.134;37.894;2023-05-21T12:19:50;100987.56;;;26.19;40.83
67517;BME280;68821;59.134;37.894;2023-05-21T12:22:18;100989.13;;;26.01;40.92
67517;BME280;68821;59.134;37.894;2023-05-21T12:24:44;100976.13;;;25.97;40.80
67517;BME280;68821;59.134;37.894;2023-05-21T12:27:12;100980.63;;;26.17;40.83
67517;BME280;68821;59.134;37.894;2023-05-21T12:29:40;100982.94;;;26.70;40.69
67517;BME280;68821;59.134;37.894;2023-05-21T12:32:09;100966.16;;;27.75;39.34
67517;BME280;68821;59.134;37.894;2023-05-21T12:34:37;100966.59;;;29.81;37.41
67517;BME280;68821;59.134;37.894;2023-05-21T12:37:05;100964.00;;;31.50;34.44
67517;BME280;68821;59.134;37.894;2023-05-21T12:39:39;100959.88;;;32.16;33.15
67517;BME280;68821;59.134;37.894;2023-05-21T12:42:06;100965.47;;;32.53;32.11
67517;BME280;68821;59.134;37.894;2023-05-21T12:44:33;100962.66;;;31.86;32.01
67517;BME280;68821;59.134;37.894;2023-05-21T12:46:59;100973.44;;;30.65;34.31
67517;BME280;68821;59.134;37.894;2023-05-21T12:50:00;100963.09;;;29.30;34.73
67517;BME280;68821;59.134;37.894;2023-05-21T12:52:28;100964.19;;;28.18;35.53
67517;BME280;68821;59.134;37.894;2023-05-21T12:54:56;100962.91;;;27.29;36.72
67517;BME280;68821;59.134;37.894;2023-05-21T12:57:24;100967.31;;;26.65;37.48
67517;BME280;68821;59.134;37.894;2023-05-21T12:59:58;100957.59;;;26.22;38.04
67517;BME280;68821;59.134;37.894;2023-05-21T13:02:30;100969.69;;;26.27;38.25
67517;BME280;68821;59.134;37.894;2023-05-21T13:04:58;100955.47;;;26.32;37.82
67517;BME280;68821;59.134;37.894;2023-05-21T13:07:27;100967.75;;;26.31;37.78
67517;BME280;68821;59.134;37.894;2023-05-21T13:09:53;100961.88;;;26.24;37.94